createdAt,value
2023-05-30T00:00:23.802Z,2.47
2023-05-30T00:03:18.616Z,2.63
2023-05-30T00:05:53.629Z,2.45
2023-05-30T00:08:25.488Z,2.53
2023-05-30T00:10:57.743Z,2.65
2023-05-30T00:13:29.740Z,2.80
2023-05-30T00:16:02.268Z,2.33
2023-05-30T00:18:36.989Z,2.60
2023-05-30T00:21:12.960Z,2.70
2023-05-30T00:23:56.170Z,2.45
2023-05-30T00:26:32.131Z,2.13
2023-05-30T00:29:04.185Z,2.40
2023-05-30T00:31:36.460Z,2.60
2023-05-30T00:34:09.351Z,2.42
2023-05-30T00:36:44.149Z,2.58
2023-05-30T00:39:17.202Z,3.08
2023-05-30T00:41:49.354Z,2.50
2023-05-30T00:44:25.128Z,2.55
2023-05-30T00:46:59.906Z,2.90
2023-05-30T00:49:34.372Z,2.42
2023-05-30T00:52:10.635Z,2.80
2023-05-30T00:54:48.808Z,2.50
2023-05-30T00:57:22.267Z,2.42
2023-05-30T01:00:07.549Z,2.78
2023-05-30T01:02:40.563Z,2.92
2023-05-30T01:05:13.989Z,2.60
2023-05-30T01:07:49.591Z,2.90
2023-05-30T01:10:21.832Z,2.42
2023-05-30T01:13:04.869Z,2.88
2023-05-30T01:15:45.325Z,3.35
2023-05-30T01:18:28.010Z,2.97
2023-05-30T01:21:03.568Z,2.63
2023-05-30T01:23:53.733Z,2.67
2023-05-30T01:26:44.554Z,3.42
2023-05-30T01:29:24.590Z,2.63
2023-05-30T01:31:57.442Z,2.80
2023-05-30T01:34:29.635Z,2.90
2023-05-30T01:37:01.348Z,3.28
2023-05-30T01:39:35.430Z,2.83
2023-05-30T01:42:19.349Z,2.90
2023-05-30T01:45:03.380Z,3.10
2023-05-30T01:47:44.609Z,3.08
2023-05-30T01:50:21.091Z,3.30
2023-05-30T01:53:05.009Z,2.80
2023-05-30T01:55:39.649Z,3.42
2023-05-30T01:58:12.987Z,3.20
2023-05-30T02:00:52.452Z,2.70
2023-05-30T02:03:29.399Z,2.50
2023-05-30T02:06:02.375Z,2.85
2023-05-30T02:08:34.634Z,2.90
2023-05-30T02:11:08.257Z,2.47
2023-05-30T02:13:41.598Z,3.10
2023-05-30T02:16:19.969Z,2.90
2023-05-30T02:18:52.174Z,2.88
2023-05-30T02:21:27.672Z,3.15
2023-05-30T02:23:59.711Z,3.05
2023-05-30T02:26:32.233Z,3.00
2023-05-30T02:29:04.206Z,2.80
2023-05-30T02:31:39.337Z,3.00
2023-05-30T02:34:12.030Z,3.00
2023-05-30T02:36:45.572Z,2.92
2023-05-30T02:39:18.014Z,2.88
2023-05-30T02:41:50.516Z,2.67
2023-05-30T02:44:22.617Z,3.08
2023-05-30T02:46:57.854Z,2.90
2023-05-30T02:49:32.127Z,2.60
2023-05-30T02:52:04.615Z,2.97
2023-05-30T02:54:36.733Z,3.13
2023-05-30T02:57:15.315Z,2.65
2023-05-30T02:59:47.377Z,2.80
2023-05-30T03:02:22.371Z,2.90
2023-05-30T03:04:54.497Z,3.03
2023-05-30T03:07:26.918Z,2.75
2023-05-30T03:09:58.977Z,3.30
2023-05-30T03:12:31.485Z,2.78
2023-05-30T03:15:06.153Z,2.90
2023-05-30T03:17:41.405Z,3.20
2023-05-30T03:20:14.812Z,2.88
2023-05-30T03:22:47.883Z,3.10
2023-05-30T03:25:20.051Z,2.92
2023-05-30T03:27:53.665Z,3.42
2023-05-30T03:30:28.194Z,3.10
2023-05-30T03:33:03.602Z,3.30
2023-05-30T03:35:38.472Z,2.80
2023-05-30T03:38:10.853Z,3.03
2023-05-30T03:40:42.837Z,3.30
2023-05-30T03:43:15.354Z,2.90
2023-05-30T03:45:47.410Z,3.03
2023-05-30T03:48:22.489Z,3.22
2023-05-30T03:50:54.571Z,3.00
2023-05-30T03:53:27.336Z,2.88
2023-05-30T03:55:59.393Z,3.28
2023-05-30T03:58:31.866Z,2.60
2023-05-30T04:01:04.716Z,2.92
2023-05-30T04:03:40.188Z,3.65
2023-05-30T04:06:16.957Z,2.85
2023-05-30T04:08:49.515Z,2.67
2023-05-30T04:11:24.730Z,3.05
2023-05-30T04:14:06.372Z,3.00
2023-05-30T04:16:38.435Z,2.70
2023-05-30T04:19:13.576Z,3.40
2023-05-30T04:21:45.669Z,3.30
2023-05-30T04:24:18.472Z,3.15
2023-05-30T04:26:50.669Z,3.10
2023-05-30T04:30:04.925Z,2.35
2023-05-30T04:32:37.768Z,2.92
2023-05-30T04:35:15.275Z,2.97
2023-05-30T04:37:48.132Z,2.97
2023-05-30T04:40:20.620Z,3.17
2023-05-30T04:42:53.596Z,2.88
2023-05-30T04:45:30.448Z,3.00
2023-05-30T04:48:05.231Z,2.95
2023-05-30T04:50:41.089Z,3.20
2023-05-30T04:53:13.126Z,3.30
2023-05-30T04:55:46.010Z,3.38
2023-05-30T04:58:18.812Z,3.30
2023-05-30T05:00:51.771Z,2.85
2023-05-30T05:03:24.091Z,2.88
2023-05-30T05:05:59.410Z,2.90
2023-05-30T05:08:31.672Z,2.63
2023-05-30T05:11:05.085Z,2.42
2023-05-30T05:13:38.330Z,2.63
2023-05-30T05:16:16.757Z,2.25
2023-05-30T05:18:48.984Z,2.53
2023-05-30T05:21:24.131Z,2.10
2023-05-30T05:23:56.793Z,2.60
2023-05-30T05:26:29.435Z,2.55
2023-05-30T05:29:01.779Z,2.08
2023-05-30T05:31:36.463Z,2.95
2023-05-30T05:34:08.722Z,2.10
2023-05-30T05:36:46.592Z,2.50
2023-05-30T05:39:19.015Z,2.97
2023-05-30T05:41:51.593Z,2.50
2023-05-30T05:44:24.775Z,2.60
2023-05-30T05:46:57.670Z,2.30
2023-05-30T05:49:29.840Z,2.50
2023-05-30T05:52:08.560Z,3.30
2023-05-30T05:54:40.773Z,3.20
2023-05-30T05:57:18.083Z,2.80
2023-05-30T05:59:51.619Z,3.00
2023-05-30T06:02:25.050Z,3.03
2023-05-30T06:04:57.240Z,2.80
2023-05-30T06:07:32.360Z,3.15
2023-05-30T06:10:04.759Z,3.15
2023-05-30T06:12:37.234Z,2.60
2023-05-30T06:15:10.554Z,3.20
2023-05-30T06:17:46.244Z,3.40
2023-05-30T06:20:18.565Z,3.05
2023-05-30T06:22:53.723Z,3.00
2023-05-30T06:25:27.567Z,3.20
2023-05-30T06:28:00.009Z,3.15
2023-05-30T06:30:34.462Z,3.05
2023-05-30T06:33:08.816Z,2.97
2023-05-30T06:35:42.706Z,2.95
2023-05-30T06:38:18.020Z,2.97
2023-05-30T06:40:50.458Z,2.50
2023-05-30T06:43:23.743Z,2.85
2023-05-30T06:45:56.108Z,2.90
2023-05-30T06:48:34.097Z,2.90
2023-05-30T06:51:07.878Z,2.90
2023-05-30T06:53:43.534Z,2.80
2023-05-30T06:56:18.536Z,2.58
2023-05-30T06:58:51.537Z,2.88
2023-05-30T07:01:24.119Z,2.53
2023-05-30T07:03:57.022Z,3.20
2023-05-30T07:06:29.660Z,3.05
2023-05-30T07:09:05.296Z,3.00
2023-05-30T07:11:37.777Z,2.63
2023-05-30T07:14:12.655Z,3.13
2023-05-30T07:16:50.285Z,2.60
2023-05-30T07:19:23.256Z,2.75
2023-05-30T07:21:55.741Z,2.25
2023-05-30T07:24:33.740Z,2.42
2023-05-30T07:27:12.898Z,2.20
2023-05-30T07:29:52.936Z,2.60
2023-05-30T07:32:25.419Z,2.75
2023-05-30T07:34:58.398Z,2.25
2023-05-30T07:37:30.856Z,2.20
2023-05-30T07:40:09.698Z,2.30
2023-05-30T07:42:42.338Z,2.08
2023-05-30T07:45:15.421Z,2.17
2023-05-30T07:47:48.232Z,2.28
2023-05-30T07:50:21.265Z,2.30
2023-05-30T07:52:53.857Z,2.40
2023-05-30T07:55:30.865Z,2.20
2023-05-30T07:58:03.417Z,2.58
2023-05-30T08:00:38.218Z,2.55
2023-05-30T08:03:12.743Z,2.25
2023-05-30T08:05:48.264Z,2.40
2023-05-30T08:08:20.906Z,2.78
2023-05-30T08:10:56.903Z,2.47
2023-05-30T08:13:31.818Z,2.35
2023-05-30T08:16:04.774Z,2.50
2023-05-30T08:18:37.663Z,2.38
2023-05-30T08:21:11.747Z,2.42
2023-05-30T08:23:44.060Z,2.30
2023-05-30T08:26:20.429Z,2.22
2023-05-30T08:28:52.952Z,2.38
2023-05-30T08:31:26.367Z,2.03
2023-05-30T08:33:58.868Z,2.42
2023-05-30T08:36:31.785Z,3.97
2023-05-30T08:41:43.261Z,2.72
2023-05-30T08:44:15.511Z,3.20
2023-05-30T08:46:54.785Z,2.58
2023-05-30T08:49:32.508Z,2.45
2023-05-30T08:52:07.262Z,3.40
2023-05-30T08:54:43.426Z,2.47
2023-05-30T08:57:26.285Z,2.00
2023-05-30T08:59:59.703Z,2.47
2023-05-30T09:02:33.374Z,2.45
2023-05-30T09:05:09.900Z,2.53
2023-05-30T09:07:44.300Z,2.92
2023-05-30T09:10:19.336Z,2.70
2023-05-30T09:12:57.997Z,2.20
2023-05-30T09:15:30.823Z,2.47
2023-05-30T09:18:04.134Z,2.47
2023-05-30T09:20:37.264Z,2.58
2023-05-30T09:23:10.973Z,2.70
2023-05-30T09:25:47.024Z,2.28
2023-05-30T09:28:31.504Z,2.10
2023-05-30T09:31:06.768Z,2.67
2023-05-30T09:33:47.264Z,2.80
2023-05-30T09:36:21.023Z,3.15
2023-05-30T09:39:01.113Z,2.50
2023-05-30T09:41:34.020Z,2.53
2023-05-30T09:44:09.955Z,2.80
2023-05-30T09:46:45.018Z,2.45
2023-05-30T09:49:23.000Z,2.60
2023-05-30T09:51:55.538Z,2.10
2023-05-30T09:54:29.844Z,2.40
2023-05-30T09:57:10.947Z,2.50
2023-05-30T09:59:53.023Z,2.45
2023-05-30T10:02:28.594Z,2.28
2023-05-30T10:05:01.346Z,2.65
2023-05-30T10:07:34.060Z,2.22
2023-05-30T10:10:08.107Z,2.35
2023-05-30T10:12:40.942Z,2.47
2023-05-30T10:15:17.181Z,2.40
2023-05-30T10:17:52.747Z,2.40
2023-05-30T10:20:28.268Z,2.50
2023-05-30T10:23:08.442Z,2.70
2023-05-30T10:25:45.697Z,2.22
2023-05-30T10:28:24.853Z,3.25
2023-05-30T10:31:01.178Z,4.00
2023-05-30T10:33:55.110Z,2.70
2023-05-30T10:36:29.293Z,2.35
2023-05-30T10:39:15.185Z,2.78
2023-05-30T10:41:57.399Z,2.17
2023-05-30T10:44:48.866Z,2.40
2023-05-30T10:47:37.111Z,2.60
2023-05-30T10:50:15.585Z,2.25
2023-05-30T10:52:54.958Z,2.22
2023-05-30T10:55:31.104Z,2.42
2023-05-30T10:58:03.961Z,2.28
2023-05-30T11:00:36.821Z,2.10
2023-05-30T11:03:39.474Z,2.10
2023-05-30T11:06:11.859Z,2.63
2023-05-30T11:08:44.941Z,2.42
2023-05-30T11:11:20.825Z,3.20
2023-05-30T11:13:58.540Z,2.55
2023-05-30T11:16:31.766Z,2.58
2023-05-30T11:19:16.872Z,2.50
2023-05-30T11:22:03.205Z,2.47
2023-05-30T11:24:36.701Z,2.10
2023-05-30T11:27:19.061Z,2.17
2023-05-30T11:29:59.278Z,2.20
2023-05-30T11:32:32.269Z,2.10
2023-05-30T11:35:08.344Z,2.20
2023-05-30T11:37:40.620Z,2.10
2023-05-30T11:40:14.784Z,2.00
2023-05-30T11:42:47.350Z,1.92
2023-05-30T11:45:20.473Z,1.90
2023-05-30T11:47:52.956Z,2.10
2023-05-30T11:50:28.341Z,2.10
2023-05-30T11:53:00.504Z,2.22
2023-05-30T11:55:34.342Z,2.30
2023-05-30T11:58:13.185Z,2.00
2023-05-30T12:00:46.945Z,2.28
2023-05-30T12:03:20.813Z,2.20
2023-05-30T12:05:58.711Z,2.00
2023-05-30T12:08:34.385Z,2.50
2023-05-30T12:11:08.918Z,1.92
2023-05-30T12:13:42.630Z,1.90
2023-05-30T12:16:15.382Z,1.90
2023-05-30T12:18:50.679Z,2.15
2023-05-30T12:21:26.102Z,1.70
2023-05-30T12:23:58.522Z,2.20
2023-05-30T12:26:31.707Z,2.20
2023-05-30T12:29:13.508Z,1.98
2023-05-30T12:31:46.263Z,2.20
2023-05-30T12:34:18.381Z,2.33
2023-05-30T12:36:58.142Z,2.25
2023-05-30T12:39:30.495Z,1.80
2023-05-30T12:42:10.779Z,1.90
2023-05-30T12:44:57.070Z,2.20
2023-05-30T12:47:34.710Z,2.13
2023-05-30T12:50:10.666Z,2.80
2023-05-30T12:52:46.303Z,2.30
2023-05-30T12:55:18.546Z,1.85
2023-05-30T12:57:51.105Z,2.08
2023-05-30T13:00:24.587Z,2.10
2023-05-30T13:02:57.781Z,2.20
2023-05-30T13:05:34.982Z,2.00
2023-05-30T13:08:10.579Z,2.08
2023-05-30T13:10:43.124Z,2.10
2023-05-30T13:13:15.905Z,1.95
2023-05-30T13:15:48.544Z,2.45
2023-05-30T13:18:26.544Z,2.30
2023-05-30T13:20:59.448Z,2.13
2023-05-30T13:23:39.496Z,1.92
2023-05-30T13:26:16.426Z,2.20
2023-05-30T13:28:49.334Z,2.20
2023-05-30T13:31:24.446Z,1.90
2023-05-30T13:33:57.775Z,2.05
2023-05-30T13:36:30.177Z,2.15
2023-05-30T13:39:05.786Z,1.80
2023-05-30T13:41:38.619Z,2.38
2023-05-30T13:44:11.338Z,2.00
2023-05-30T13:46:43.575Z,2.40
2023-05-30T13:49:16.193Z,2.28
2023-05-30T13:51:48.384Z,2.17
2023-05-30T13:54:23.537Z,2.17
2023-05-30T13:56:57.144Z,1.90
2023-05-30T13:59:31.990Z,1.95
2023-05-30T14:02:07.233Z,2.33
2023-05-30T14:04:40.064Z,2.15
2023-05-30T14:07:12.181Z,1.92
2023-05-30T14:09:48.018Z,2.08
2023-05-30T14:12:22.501Z,2.10
2023-05-30T14:14:55.109Z,2.25
2023-05-30T14:17:29.849Z,2.00
2023-05-30T14:20:02.343Z,1.67
2023-05-30T14:22:34.604Z,1.88
2023-05-30T14:25:10.783Z,2.00
2023-05-30T14:27:47.348Z,2.25
2023-05-30T14:30:19.827Z,1.90
2023-05-30T14:32:52.668Z,2.33
2023-05-30T14:35:25.337Z,2.00
2023-05-30T14:37:58.707Z,2.53
2023-05-30T14:40:33.914Z,1.90
2023-05-30T14:43:06.461Z,2.30
2023-05-30T14:45:43.100Z,2.25
2023-05-30T14:48:16.261Z,2.00
2023-05-30T14:50:49.146Z,2.45
2023-05-30T14:53:21.822Z,2.30
2023-05-30T14:55:57.214Z,2.10
2023-05-30T14:58:29.177Z,1.90
2023-05-30T15:01:18.602Z,2.30
2023-05-30T15:03:54.126Z,2.97
2023-05-30T15:06:26.977Z,2.47
2023-05-30T15:09:01.419Z,2.40
2023-05-30T15:11:36.936Z,2.10
2023-05-30T15:14:09.101Z,3.10
2023-05-30T15:16:41.737Z,2.17
2023-05-30T15:19:14.055Z,2.60
2023-05-30T15:21:46.576Z,2.55
2023-05-30T15:24:18.778Z,2.50
2023-05-30T15:26:54.020Z,2.50
2023-05-30T15:29:26.380Z,2.13
2023-05-30T15:31:58.952Z,2.28
2023-05-30T15:34:31.430Z,2.00
2023-05-30T15:37:05.111Z,2.60
2023-05-30T15:39:37.988Z,5.18
2023-05-30T15:42:13.909Z,2.05
2023-05-30T15:44:46.391Z,2.30
2023-05-30T15:47:19.419Z,1.92
2023-05-30T15:49:52.062Z,1.90
2023-05-30T15:52:25.257Z,2.28
2023-05-30T15:54:59.344Z,2.08
2023-05-30T15:57:35.141Z,2.17
2023-05-30T16:00:12.579Z,1.90
2023-05-30T16:02:45.664Z,2.47
2023-05-30T16:05:21.302Z,2.13
2023-05-30T16:07:55.258Z,2.33
2023-05-30T16:10:28.220Z,2.17
2023-05-30T16:13:03.778Z,2.10
2023-05-30T16:15:36.264Z,2.22
2023-05-30T16:18:09.389Z,2.30
2023-05-30T16:20:45.193Z,2.00
2023-05-30T16:23:18.422Z,2.00
2023-05-30T16:25:50.982Z,1.90
2023-05-30T16:28:26.624Z,2.20
2023-05-30T16:30:59.558Z,2.08
2023-05-30T16:33:32.858Z,2.15
2023-05-30T16:36:06.060Z,2.08
2023-05-30T16:38:40.666Z,2.00
2023-05-30T16:41:14.612Z,2.00
2023-05-30T16:43:51.507Z,2.35
2023-05-30T16:46:24.126Z,2.30
2023-05-30T16:48:57.176Z,2.42
2023-05-30T16:51:33.264Z,2.47
2023-05-30T16:54:06.575Z,2.17
2023-05-30T16:56:39.016Z,2.10
2023-05-30T16:59:14.749Z,2.15
2023-05-30T17:01:47.276Z,2.40
2023-05-30T17:04:20.221Z,2.10
2023-05-30T17:06:52.983Z,2.40
2023-05-30T17:09:26.095Z,2.30
2023-05-30T17:11:59.258Z,2.47
2023-05-30T17:14:37.943Z,2.13
2023-05-30T17:17:12.341Z,2.40
2023-05-30T17:19:48.133Z,2.45
2023-05-30T17:22:20.732Z,2.40
2023-05-30T17:24:53.641Z,2.35
2023-05-30T17:27:28.417Z,1.95
2023-05-30T17:30:08.098Z,2.17
2023-05-30T17:32:40.884Z,2.50
2023-05-30T17:35:14.054Z,2.25
2023-05-30T17:37:46.790Z,2.58
2023-05-30T17:40:20.382Z,2.63
2023-05-30T17:42:52.976Z,2.47
2023-05-30T17:45:29.218Z,2.15
2023-05-30T17:48:01.813Z,2.55
2023-05-30T17:50:35.058Z,2.20
2023-05-30T17:53:07.705Z,2.70
2023-05-30T17:55:41.337Z,2.58
2023-05-30T17:58:14.017Z,2.28
2023-05-30T18:00:50.818Z,2.90
2023-05-30T18:03:23.696Z,2.60
2023-05-30T18:05:56.782Z,2.80
2023-05-30T18:08:29.257Z,2.60
2023-05-30T18:11:06.552Z,2.20
2023-05-30T18:13:54.217Z,2.35
2023-05-30T18:16:29.926Z,2.67
2023-05-30T18:19:02.782Z,2.40
2023-05-30T18:21:35.901Z,2.30
2023-05-30T18:24:08.771Z,2.30
2023-05-30T18:26:42.582Z,2.28
2023-05-30T18:29:15.174Z,2.10
2023-05-30T18:31:51.962Z,2.05
2023-05-30T18:34:25.376Z,2.40
2023-05-30T18:36:58.417Z,2.50
2023-05-30T18:39:31.582Z,2.20
2023-05-30T18:42:04.415Z,2.20
2023-05-30T18:44:37.656Z,2.33
2023-05-30T18:47:15.429Z,2.55
2023-05-30T18:49:48.613Z,2.30
2023-05-30T18:52:22.179Z,2.38
2023-05-30T18:54:54.732Z,2.58
2023-05-30T18:57:27.974Z,2.65
2023-05-30T19:00:01.500Z,2.65
2023-05-30T19:02:37.490Z,2.63
2023-05-30T19:05:11.317Z,2.90
2023-05-30T19:07:45.278Z,3.67
2023-05-30T19:10:18.584Z,2.60
2023-05-30T19:12:51.738Z,2.22
2023-05-30T19:15:25.670Z,2.08
2023-05-30T19:18:04.678Z,2.38
2023-05-30T19:20:37.420Z,2.65
2023-05-30T19:23:11.779Z,2.30
2023-05-30T19:25:44.580Z,2.25
2023-05-30T19:28:17.765Z,2.30
2023-05-30T19:30:51.022Z,2.25
2023-05-30T19:33:27.339Z,2.20
2023-05-30T19:36:00.176Z,2.25
2023-05-30T19:38:36.699Z,2.45
2023-05-30T19:41:10.184Z,2.40
2023-05-30T19:43:43.425Z,2.25
2023-05-30T19:46:16.106Z,2.95
2023-05-30T19:48:51.820Z,2.42
2023-05-30T19:51:24.418Z,2.70
2023-05-30T19:53:57.416Z,2.30
2023-05-30T19:56:29.905Z,3.00
2023-05-30T19:59:02.708Z,2.13
2023-05-30T20:01:35.369Z,2.10
2023-05-30T20:04:11.512Z,2.03
2023-05-30T20:06:44.148Z,2.13
2023-05-30T20:09:17.941Z,1.85
2023-05-30T20:11:50.498Z,1.90
2023-05-30T20:14:24.217Z,2.00
2023-05-30T20:16:57.545Z,2.40
2023-05-30T20:19:34.173Z,2.00
2023-05-30T20:22:09.188Z,2.08
2023-05-30T20:24:42.628Z,1.90
2023-05-30T20:27:21.488Z,2.10
2023-05-30T20:29:55.471Z,1.75
2023-05-30T20:32:28.000Z,1.90
2023-05-30T20:35:04.540Z,2.10
2023-05-30T20:37:40.575Z,1.77
2023-05-30T20:40:14.413Z,2.60
2023-05-30T20:42:49.301Z,1.85
2023-05-30T20:45:22.303Z,2.10
2023-05-30T20:47:55.470Z,2.30
2023-05-30T20:50:31.147Z,1.85
2023-05-30T20:53:03.700Z,2.17
2023-05-30T20:55:36.700Z,1.88
2023-05-30T20:58:09.181Z,1.98
2023-05-30T21:00:42.776Z,1.92
2023-05-30T21:03:15.500Z,2.30
2023-05-30T21:05:54.095Z,1.90
2023-05-30T21:08:26.778Z,1.83
2023-05-30T21:11:00.640Z,2.05
2023-05-30T21:13:33.456Z,1.88
2023-05-30T21:16:06.436Z,2.08
2023-05-30T21:18:39.032Z,2.33
2023-05-30T21:21:14.696Z,2.15
2023-05-30T21:23:47.138Z,2.08
2023-05-30T21:26:21.060Z,2.42
2023-05-30T21:28:53.532Z,2.17
2023-05-30T21:31:27.174Z,2.20
2023-05-30T21:34:01.182Z,2.22
2023-05-30T21:36:38.457Z,2.22
2023-05-30T21:39:13.218Z,2.20
2023-05-30T21:41:46.175Z,2.17
2023-05-30T21:44:18.788Z,2.17
2023-05-30T21:46:51.709Z,2.10
2023-05-30T21:49:27.574Z,2.28
2023-05-30T21:52:03.194Z,2.00
2023-05-30T21:54:39.882Z,2.35
2023-05-30T21:57:12.977Z,2.10
2023-05-30T21:59:45.374Z,2.50
2023-05-30T22:02:23.664Z,2.20
2023-05-30T22:04:59.263Z,2.45
2023-05-30T22:07:34.972Z,2.17
2023-05-30T22:10:07.812Z,2.10
2023-05-30T22:12:43.856Z,1.92
2023-05-30T22:15:16.620Z,1.80
2023-05-30T22:17:49.661Z,1.98
2023-05-30T22:20:22.633Z,2.22
2023-05-30T22:22:59.054Z,2.20
2023-05-30T22:25:33.332Z,2.03
2023-05-30T22:28:06.496Z,1.88
2023-05-30T22:30:38.977Z,1.98
2023-05-30T22:33:11.896Z,2.10
2023-05-30T22:35:44.376Z,2.45
2023-05-30T22:38:19.981Z,1.85
2023-05-30T22:40:52.584Z,2.08
2023-05-30T22:43:25.384Z,1.83
2023-05-30T22:46:01.172Z,1.88
2023-05-30T22:48:34.069Z,2.13
2023-05-30T22:51:06.896Z,2.15
2023-05-30T22:53:44.267Z,2.30
2023-05-30T22:56:17.423Z,2.00
2023-05-30T22:59:21.182Z,2.30
2023-05-30T23:01:57.952Z,1.80
2023-05-30T23:04:31.300Z,2.20
2023-05-30T23:07:06.997Z,1.98
2023-05-30T23:09:42.145Z,1.77
2023-05-30T23:12:14.944Z,2.30
2023-05-30T23:14:47.664Z,1.88
2023-05-30T23:17:20.545Z,1.90
2023-05-30T23:19:53.027Z,2.15
2023-05-30T23:22:25.864Z,2.20
2023-05-30T23:25:01.461Z,1.92
2023-05-30T23:27:34.229Z,1.80
2023-05-30T23:30:07.185Z,2.22
2023-05-30T23:32:47.282Z,1.90
2023-05-30T23:35:19.715Z,1.80
2023-05-30T23:37:53.022Z,1.98
2023-05-30T23:40:28.343Z,1.98
2023-05-30T23:43:01.218Z,2.28
2023-05-30T23:45:34.488Z,2.13
2023-05-30T23:48:07.646Z,2.33
2023-05-30T23:50:40.217Z,2.30
2023-05-30T23:53:13.057Z,2.58
2023-05-30T23:55:48.344Z,2.35
2023-05-30T23:58:21.659Z,2.40
